Portada
METAR-TAF:

METAR-TAF

Aeroports :

Chandigar, Índia

latitud: 30-40-29N, longitud: 76-47-26E, altitud: 314 m

METAR: manca

Hora: 23:31 (18:01 UTC)

Pronòstic

L'informe es va fer fa 2 hores i 31 minuts, a les 15:30 UTC
Pronòstic vàlid del 23 a les 18 UTC al 24 a les 06 UTC
Vent 10 kt del Sud-Est
Visibilitat: 6000 m
Escasses núvols a una alçada de 2500 ft
Núvols disperses a una alçada de 12000 ft
Temporalment
l' 24 a les 00 UTC al 24 a les 03 UTC
Vent 10 kt del Sud
Visibilitat: 5000 m
Núvols disperses a una alçada de 2500 ft
Escasses núvols a una alçada de 3000 ft, Cumulus congestus.
Núvols disperses a una alçada de 12000 ft
boirina

TAF: VICG 231530Z 2318/2406 14010KT 6000 FEW025 SCT120 TEMPO 2400/2403 18010KT 5000 BR SCT025 FEW030TCU SCT120

Observacions i pronòstics meteorològics de més de 4000 aeroports (METAR i TAF).

Les estacions disponibles són els punts grocs i vermells al mapa.

Posi el ratolí al punt desitjat per veure el nom de l'estació.

Feu clic per veure les observacions i els pronòstics meteorològics.

Per canviar el mapa: feu clic els botons verds amb una creu de color negre per apropar; al botó verd amb un guió per allunyar la imatge; o en les fletxes verdes per a mapes adjacents.


METAR-TAF: